sensor_id;sensor_type;location;lat;lon;timestamp;temperature;humidity
22562;DHT22;11447;50.562;8.504;2022-10-20T00:01:57;11.10;99.90
22562;DHT22;11447;50.562;8.504;2022-10-20T00:04:24;11.10;99.90
22562;DHT22;11447;50.562;8.504;2022-10-20T00:06:51;11.10;99.90
22562;DHT22;11447;50.562;8.504;2022-10-20T00:09:17;11.00;99.90
22562;DHT22;11447;50.562;8.504;2022-10-20T00:11:44;11.10;99.90
22562;DHT22;11447;50.562;8.504;2022-10-20T00:14:11;11.10;99.90
22562;DHT22;11447;50.562;8.504;2022-10-20T00:16:38;11.10;99.90
22562;DHT22;11447;50.562;8.504;2022-10-20T00:19:05;11.10;99.90
22562;DHT22;11447;50.562;8.504;2022-10-20T00:21:32;11.00;99.90
22562;DHT22;11447;50.562;8.504;2022-10-20T00:23:59;11.00;99.90
22562;DHT22;11447;50.562;8.504;2022-10-20T00:26:27;11.00;99.90
22562;DHT22;11447;50.562;8.504;2022-10-20T00:28:54;11.00;99.90
22562;DHT22;11447;50.562;8.504;2022-10-20T00:31:24;10.90;99.90
22562;DHT22;11447;50.562;8.504;2022-10-20T00:33:51;10.90;99.90
22562;DHT22;11447;50.562;8.504;2022-10-20T00:36:20;10.90;99.90
22562;DHT22;11447;50.562;8.504;2022-10-20T00:38:50;10.90;99.90
22562;DHT22;11447;50.562;8.504;2022-10-20T00:41:18;10.80;99.90
22562;DHT22;11447;50.562;8.504;2022-10-20T00:43:46;10.90;99.90
22562;DHT22;11447;50.562;8.504;2022-10-20T00:46:15;10.90;99.90
22562;DHT22;11447;50.562;8.504;2022-10-20T00:48:42;10.80;99.90
22562;DHT22;11447;50.562;8.504;2022-10-20T00:51:11;10.80;99.90
22562;DHT22;11447;50.562;8.504;2022-10-20T00:53:42;10.70;99.90
22562;DHT22;11447;50.562;8.504;2022-10-20T00:56:10;10.70;99.90
22562;DHT22;11447;50.562;8.504;2022-10-20T00:58:37;10.70;99.90
22562;DHT22;11447;50.562;8.504;2022-10-20T01:01:04;10.70;99.90
22562;DHT22;11447;50.562;8.504;2022-10-20T01:03:33;10.60;99.90
22562;DHT22;11447;50.562;8.504;2022-10-20T01:06:02;10.60;99.90
22562;DHT22;11447;50.562;8.504;2022-10-20T01:08:29;10.60;99.90
22562;DHT22;11447;50.562;8.504;2022-10-20T01:13:26;10.50;99.90
22562;DHT22;11447;50.562;8.504;2022-10-20T01:15:58;10.50;99.90
22562;DHT22;11447;50.562;8.504;2022-10-20T01:23:54;10.50;99.90
22562;DHT22;11447;50.562;8.504;2022-10-20T01:28:59;10.50;99.90
22562;DHT22;11447;50.562;8.504;2022-10-20T01:34:07;10.50;99.90
22562;DHT22;11447;50.562;8.504;2022-10-20T01:36:38;10.50;99.90
22562;DHT22;11447;50.562;8.504;2022-10-20T01:39:07;10.50;99.90
22562;DHT22;11447;50.562;8.504;2022-10-20T01:41:45;10.50;99.90
22562;DHT22;11447;50.562;8.504;2022-10-20T01:44:14;10.50;99.90
22562;DHT22;11447;50.562;8.504;2022-10-20T01:46:42;10.50;99.90
22562;DHT22;11447;50.562;8.504;2022-10-20T01:49:12;10.50;99.90
22562;DHT22;11447;50.562;8.504;2022-10-20T01:51:41;10.50;99.90
22562;DHT22;11447;50.562;8.504;2022-10-20T01:54:22;10.50;99.90
22562;DHT22;11447;50.562;8.504;2022-10-20T01:57:00;10.50;99.90
22562;DHT22;11447;50.562;8.504;2022-10-20T02:02:03;10.40;99.90
22562;DHT22;11447;50.562;8.504;2022-10-20T02:07:20;10.40;99.90
22562;DHT22;11447;50.562;8.504;2022-10-20T02:09:49;10.40;99.90
22562;DHT22;11447;50.562;8.504;2022-10-20T02:12:20;10.30;99.90
22562;DHT22;11447;50.562;8.504;2022-10-20T02:14:50;10.30;99.90
22562;DHT22;11447;50.562;8.504;2022-10-20T02:17:17;10.30;99.90
22562;DHT22;11447;50.562;8.504;2022-10-20T02:19:45;10.20;99.90
22562;DHT22;11447;50.562;8.504;2022-10-20T02:22:15;10.10;99.90
22562;DHT22;11447;50.562;8.504;2022-10-20T02:24:45;10.10;99.90
22562;DHT22;11447;50.562;8.504;2022-10-20T02:27:13;10.10;99.90
22562;DHT22;11447;50.562;8.504;2022-10-20T02:29:50;10.10;99.90
22562;DHT22;11447;50.562;8.504;2022-10-20T02:32:19;10.10;99.90
22562;DHT22;11447;50.562;8.504;2022-10-20T02:34:46;10.00;99.90
22562;DHT22;11447;50.562;8.504;2022-10-20T02:37:13;9.90;99.90
22562;DHT22;11447;50.562;8.504;2022-10-20T02:39:40;9.80;99.90
22562;DHT22;11447;50.562;8.504;2022-10-20T02:42:06;9.70;99.90
22562;DHT22;11447;50.562;8.504;2022-10-20T02:44:33;9.60;99.90
22562;DHT22;11447;50.562;8.504;2022-10-20T02:46:59;9.60;99.90
22562;DHT22;11447;50.562;8.504;2022-10-20T02:49:28;9.50;99.90
22562;DHT22;11447;50.562;8.504;2022-10-20T02:51:57;9.50;99.90
22562;DHT22;11447;50.562;8.504;2022-10-20T02:54:23;9.40;99.90
22562;DHT22;11447;50.562;8.504;2022-10-20T02:56:55;9.40;99.90
22562;DHT22;11447;50.562;8.504;2022-10-20T02:59:21;9.30;99.90
22562;DHT22;11447;50.562;8.504;2022-10-20T03:01:48;9.30;99.90
22562;DHT22;11447;50.562;8.504;2022-10-20T03:04:18;9.30;99.90
22562;DHT22;11447;50.562;8.504;2022-10-20T03:06:44;9.20;99.90
22562;DHT22;11447;50.562;8.504;2022-10-20T03:09:13;9.10;99.90
22562;DHT22;11447;50.562;8.504;2022-10-20T03:11:39;9.10;99.90
22562;DHT22;11447;50.562;8.504;2022-10-20T03:14:06;9.00;99.90
22562;DHT22;11447;50.562;8.504;2022-10-20T03:16:33;9.00;99.90
22562;DHT22;11447;50.562;8.504;2022-10-20T03:18:59;9.00;99.90
22562;DHT22;11447;50.562;8.504;2022-10-20T03:21:31;9.00;99.90
22562;DHT22;11447;50.562;8.504;2022-10-20T03:24:00;8.90;99.90
22562;DHT22;11447;50.562;8.504;2022-10-20T03:26:29;8.90;99.90
22562;DHT22;11447;50.562;8.504;2022-10-20T03:28:56;8.90;99.90
22562;DHT22;11447;50.562;8.504;2022-10-20T03:31:22;8.90;99.90
22562;DHT22;11447;50.562;8.504;2022-10-20T03:33:51;8.90;99.90
22562;DHT22;11447;50.562;8.504;2022-10-20T03:36:18;8.90;99.90
22562;DHT22;11447;50.562;8.504;2022-10-20T03:38:44;9.00;99.90
22562;DHT22;11447;50.562;8.504;2022-10-20T03:41:11;9.00;99.90
22562;DHT22;11447;50.562;8.504;2022-10-20T03:43:38;8.90;99.90
22562;DHT22;11447;50.562;8.504;2022-10-20T03:46:05;8.90;99.90
22562;DHT22;11447;50.562;8.504;2022-10-20T03:48:35;8.90;99.90
22562;DHT22;11447;50.562;8.504;2022-10-20T03:51:02;8.90;99.90
22562;DHT22;11447;50.562;8.504;2022-10-20T03:53:29;8.80;99.90
22562;DHT22;11447;50.562;8.504;2022-10-20T03:55:55;8.70;99.90
22562;DHT22;11447;50.562;8.504;2022-10-20T03:58:22;8.60;99.90
22562;DHT22;11447;50.562;8.504;2022-10-20T04:00:49;8.70;99.90
22562;DHT22;11447;50.562;8.504;2022-10-20T04:03:17;8.70;99.90
22562;DHT22;11447;50.562;8.504;2022-10-20T04:05:44;8.80;99.90
22562;DHT22;11447;50.562;8.504;2022-10-20T04:08:10;8.90;99.90
22562;DHT22;11447;50.562;8.504;2022-10-20T04:10:37;8.90;99.90
22562;DHT22;11447;50.562;8.504;2022-10-20T04:13:04;9.00;99.90
22562;DHT22;11447;50.562;8.504;2022-10-20T04:15:30;9.00;99.90
22562;DHT22;11447;50.562;8.504;2022-10-20T04:17:57;9.00;99.90
22562;DHT22;11447;50.562;8.504;2022-10-20T04:20:26;8.90;99.90
22562;DHT22;11447;50.562;8.504;2022-10-20T04:22:52;9.00;99.90
22562;DHT22;11447;50.562;8.504;2022-10-20T04:25:19;9.00;99.90
22562;DHT22;11447;50.562;8.504;2022-10-20T04:27:45;9.00;99.90
22562;DHT22;11447;50.562;8.504;2022-10-20T04:30:17;9.00;99.90
22562;DHT22;11447;50.562;8.504;2022-10-20T04:32:43;9.10;99.90
22562;DHT22;11447;50.562;8.504;2022-10-20T04:35:10;9.10;99.90
22562;DHT22;11447;50.562;8.504;2022-10-20T04:37:36;9.10;99.90
22562;DHT22;11447;50.562;8.504;2022-10-20T04:40:04;9.00;99.90
22562;DHT22;11447;50.562;8.504;2022-10-20T04:42:30;9.00;99.90
22562;DHT22;11447;50.562;8.504;2022-10-20T04:44:57;8.90;99.90
22562;DHT22;11447;50.562;8.504;2022-10-20T04:47:32;8.80;99.90
22562;DHT22;11447;50.562;8.504;2022-10-20T04:49:59;8.80;99.90
22562;DHT22;11447;50.562;8.504;2022-10-20T04:52:27;8.70;99.90
22562;DHT22;11447;50.562;8.504;2022-10-20T04:54:53;8.70;99.90
22562;DHT22;11447;50.562;8.504;2022-10-20T04:57:22;8.80;99.90
22562;DHT22;11447;50.562;8.504;2022-10-20T04:59:51;8.80;99.90
22562;DHT22;11447;50.562;8.504;2022-10-20T05:02:17;8.80;99.90
22562;DHT22;11447;50.562;8.504;2022-10-20T05:04:45;8.80;99.90
22562;DHT22;11447;50.562;8.504;2022-10-20T05:07:11;8.80;99.90
22562;DHT22;11447;50.562;8.504;2022-10-20T05:09:38;8.80;99.90
22562;DHT22;11447;50.562;8.504;2022-10-20T05:12:07;8.80;99.90
22562;DHT22;11447;50.562;8.504;2022-10-20T05:14:33;8.80;99.90
22562;DHT22;11447;50.562;8.504;2022-10-20T05:17:00;8.80;99.90
22562;DHT22;11447;50.562;8.504;2022-10-20T05:19:33;8.80;99.90
22562;DHT22;11447;50.562;8.504;2022-10-20T05:21:59;8.90;99.90
22562;DHT22;11447;50.562;8.504;2022-10-20T05:24:28;8.80;99.90
22562;DHT22;11447;50.562;8.504;2022-10-20T05:26:55;8.80;99.90
22562;DHT22;11447;50.562;8.504;2022-10-20T05:29:24;8.70;99.90
22562;DHT22;11447;50.562;8.504;2022-10-20T05:31:51;8.70;99.90
22562;DHT22;11447;50.562;8.504;2022-10-20T05:34:17;8.80;99.90
22562;DHT22;11447;50.562;8.504;2022-10-20T05:36:46;8.80;99.90
22562;DHT22;11447;50.562;8.504;2022-10-20T05:39:12;8.90;99.90
22562;DHT22;11447;50.562;8.504;2022-10-20T05:41:39;8.80;99.90
22562;DHT22;11447;50.562;8.504;2022-10-20T05:44:06;8.80;99.90
22562;DHT22;11447;50.562;8.504;2022-10-20T05:46:34;8.80;99.90
22562;DHT22;11447;50.562;8.504;2022-10-20T05:49:03;8.80;99.90
22562;DHT22;11447;50.562;8.504;2022-10-20T05:51:32;8.80;99.90
22562;DHT22;11447;50.562;8.504;2022-10-20T05:53:59;8.90;99.90
22562;DHT22;11447;50.562;8.504;2022-10-20T05:56:26;8.90;99.90
22562;DHT22;11447;50.562;8.504;2022-10-20T05:58:53;8.90;99.90
22562;DHT22;11447;50.562;8.504;2022-10-20T06:01:20;8.90;99.90
22562;DHT22;11447;50.562;8.504;2022-10-20T06:03:53;8.90;99.90
22562;DHT22;11447;50.562;8.504;2022-10-20T06:06:21;8.80;99.90
22562;DHT22;11447;50.562;8.504;2022-10-20T06:08:47;8.80;99.90
22562;DHT22;11447;50.562;8.504;2022-10-20T06:11:16;8.80;99.90
22562;DHT22;11447;50.562;8.504;2022-10-20T06:13:43;8.90;99.90
22562;DHT22;11447;50.562;8.504;2022-10-20T06:16:21;8.90;99.90
22562;DHT22;11447;50.562;8.504;2022-10-20T06:18:51;8.90;99.90
22562;DHT22;11447;50.562;8.504;2022-10-20T06:21:18;8.90;99.90
22562;DHT22;11447;50.562;8.504;2022-10-20T06:23:45;9.00;99.90
22562;DHT22;11447;50.562;8.504;2022-10-20T06:26:13;9.00;99.90
22562;DHT22;11447;50.562;8.504;2022-10-20T06:28:43;9.00;99.90
22562;DHT22;11447;50.562;8.504;2022-10-20T06:31:13;9.10;99.90
22562;DHT22;11447;50.562;8.504;2022-10-20T06:33:45;9.20;99.90
22562;DHT22;11447;50.562;8.504;2022-10-20T06:36:12;9.30;99.90
22562;DHT22;11447;50.562;8.504;2022-10-20T06:38:39;9.30;99.90
22562;DHT22;11447;50.562;8.504;2022-10-20T06:41:07;9.30;99.90
22562;DHT22;11447;50.562;8.504;2022-10-20T06:43:34;9.30;99.90
22562;DHT22;11447;50.562;8.504;2022-10-20T06:46:02;9.40;99.90
22562;DHT22;11447;50.562;8.504;2022-10-20T06:48:29;9.30;99.90
22562;DHT22;11447;50.562;8.504;2022-10-20T06:50:58;9.30;99.90
22562;DHT22;11447;50.562;8.504;2022-10-20T06:53:27;9.30;99.90
22562;DHT22;11447;50.562;8.504;2022-10-20T06:56:00;9.30;99.90
22562;DHT22;11447;50.562;8.504;2022-10-20T06:58:30;9.30;99.90
22562;DHT22;11447;50.562;8.504;2022-10-20T07:00:59;9.30;99.90
22562;DHT22;11447;50.562;8.504;2022-10-20T07:03:30;9.30;99.90
22562;DHT22;11447;50.562;8.504;2022-10-20T07:05:57;9.30;99.90
22562;DHT22;11447;50.562;8.504;2022-10-20T07:08:25;9.40;99.90
22562;DHT22;11447;50.562;8.504;2022-10-20T07:13:30;9.50;99.90
22562;DHT22;11447;50.562;8.504;2022-10-20T07:15:59;9.50;99.90
22562;DHT22;11447;50.562;8.504;2022-10-20T07:18:27;9.50;99.90
22562;DHT22;11447;50.562;8.504;2022-10-20T07:20:57;9.60;99.90
22562;DHT22;11447;50.562;8.504;2022-10-20T07:23:25;9.60;99.90
22562;DHT22;11447;50.562;8.504;2022-10-20T07:25:52;9.60;99.90
22562;DHT22;11447;50.562;8.504;2022-10-20T07:28:18;9.60;99.90
22562;DHT22;11447;50.562;8.504;2022-10-20T07:30:47;9.70;99.90
22562;DHT22;11447;50.562;8.504;2022-10-20T07:33:14;9.70;99.90
22562;DHT22;11447;50.562;8.504;2022-10-20T07:35:40;9.70;99.90
22562;DHT22;11447;50.562;8.504;2022-10-20T07:38:07;9.80;99.90
22562;DHT22;11447;50.562;8.504;2022-10-20T07:40:33;9.80;99.90
22562;DHT22;11447;50.562;8.504;2022-10-20T07:43:00;9.90;99.90
22562;DHT22;11447;50.562;8.504;2022-10-20T07:45:27;9.80;99.90
22562;DHT22;11447;50.562;8.504;2022-10-20T07:47:55;9.90;99.90
22562;DHT22;11447;50.562;8.504;2022-10-20T07:50:22;9.90;99.90
22562;DHT22;11447;50.562;8.504;2022-10-20T07:52:50;9.90;99.90
22562;DHT22;11447;50.562;8.504;2022-10-20T07:55:17;10.00;99.90
22562;DHT22;11447;50.562;8.504;2022-10-20T07:58:04;10.00;99.90
22562;DHT22;11447;50.562;8.504;2022-10-20T08:00:30;9.90;99.90
22562;DHT22;11447;50.562;8.504;2022-10-20T08:03:01;9.90;99.90
22562;DHT22;11447;50.562;8.504;2022-10-20T08:05:28;10.00;99.90
22562;DHT22;11447;50.562;8.504;2022-10-20T08:07:57;9.90;99.90
22562;DHT22;11447;50.562;8.504;2022-10-20T08:10:25;10.00;99.90
22562;DHT22;11447;50.562;8.504;2022-10-20T08:12:57;10.10;99.90
22562;DHT22;11447;50.562;8.504;2022-10-20T08:15:23;10.00;99.90
22562;DHT22;11447;50.562;8.504;2022-10-20T08:17:50;10.00;99.90
22562;DHT22;11447;50.562;8.504;2022-10-20T08:20:16;10.00;99.90
22562;DHT22;11447;50.562;8.504;2022-10-20T08:23:00;10.00;99.90
22562;DHT22;11447;50.562;8.504;2022-10-20T08:25:26;10.10;99.90
22562;DHT22;11447;50.562;8.504;2022-10-20T08:27:55;10.20;99.90
22562;DHT22;11447;50.562;8.504;2022-10-20T08:30:27;10.30;99.90
22562;DHT22;11447;50.562;8.504;2022-10-20T08:32:53;10.40;99.90
22562;DHT22;11447;50.562;8.504;2022-10-20T08:35:20;10.40;99.90
22562;DHT22;11447;50.562;8.504;2022-10-20T08:37:47;10.40;99.90
22562;DHT22;11447;50.562;8.504;2022-10-20T08:40:22;10.40;99.90
22562;DHT22;11447;50.562;8.504;2022-10-20T08:42:49;10.50;99.90
22562;DHT22;11447;50.562;8.504;2022-10-20T08:45:17;10.50;99.90
22562;DHT22;11447;50.562;8.504;2022-10-20T08:47:44;10.60;99.90
22562;DHT22;11447;50.562;8.504;2022-10-20T08:50:12;10.60;99.90
22562;DHT22;11447;50.562;8.504;2022-10-20T08:52:49;10.60;99.90
22562;DHT22;11447;50.562;8.504;2022-10-20T08:57:47;10.70;99.90
22562;DHT22;11447;50.562;8.504;2022-10-20T09:02:40;10.80;99.90
22562;DHT22;11447;50.562;8.504;2022-10-20T09:05:10;10.80;99.90
22562;DHT22;11447;50.562;8.504;2022-10-20T09:07:43;10.80;99.90
22562;DHT22;11447;50.562;8.504;2022-10-20T09:12:44;10.90;99.90
22562;DHT22;11447;50.562;8.504;2022-10-20T09:15:12;11.00;99.90
22562;DHT22;11447;50.562;8.504;2022-10-20T09:17:39;11.00;99.90
22562;DHT22;11447;50.562;8.504;2022-10-20T09:20:12;11.10;99.90
22562;DHT22;11447;50.562;8.504;2022-10-20T09:22:43;11.10;99.90
22562;DHT22;11447;50.562;8.504;2022-10-20T09:25:17;11.20;99.90
22562;DHT22;11447;50.562;8.504;2022-10-20T09:27:49;11.20;99.90
22562;DHT22;11447;50.562;8.504;2022-10-20T09:30:20;11.30;99.90
22562;DHT22;11447;50.562;8.504;2022-10-20T09:32:48;11.30;99.90
22562;DHT22;11447;50.562;8.504;2022-10-20T09:35:18;11.30;99.90
22562;DHT22;11447;50.562;8.504;2022-10-20T09:37:52;11.40;99.90
22562;DHT22;11447;50.562;8.504;2022-10-20T09:40:20;11.40;99.90
22562;DHT22;11447;50.562;8.504;2022-10-20T09:43:01;11.40;99.90
22562;DHT22;11447;50.562;8.504;2022-10-20T09:45:32;11.50;99.90
22562;DHT22;11447;50.562;8.504;2022-10-20T09:48:02;11.50;99.90
22562;DHT22;11447;50.562;8.504;2022-10-20T09:50:34;11.40;99.90
22562;DHT22;11447;50.562;8.504;2022-10-20T09:53:05;11.50;99.90
22562;DHT22;11447;50.562;8.504;2022-10-20T09:55:39;11.50;99.90
22562;DHT22;11447;50.562;8.504;2022-10-20T09:58:21;11.60;99.90
22562;DHT22;11447;50.562;8.504;2022-10-20T10:03:40;11.60;99.90
22562;DHT22;11447;50.562;8.504;2022-10-20T10:08:48;11.70;99.90
22562;DHT22;11447;50.562;8.504;2022-10-20T10:11:15;11.70;99.90
22562;DHT22;11447;50.562;8.504;2022-10-20T10:13:45;11.80;99.90
22562;DHT22;11447;50.562;8.504;2022-10-20T10:16:15;11.80;99.90
22562;DHT22;11447;50.562;8.504;2022-10-20T10:18:52;11.90;99.90
22562;DHT22;11447;50.562;8.504;2022-10-20T10:21:22;11.90;99.90
22562;DHT22;11447;50.562;8.504;2022-10-20T10:23:52;12.00;99.90
22562;DHT22;11447;50.562;8.504;2022-10-20T10:29:13;11.90;99.90
22562;DHT22;11447;50.562;8.504;2022-10-20T10:31:45;12.00;99.90
22562;DHT22;11447;50.562;8.504;2022-10-20T10:36:41;12.00;99.90
22562;DHT22;11447;50.562;8.504;2022-10-20T10:39:11;11.90;99.90
22562;DHT22;11447;50.562;8.504;2022-10-20T10:59:47;12.10;99.90
22562;DHT22;11447;50.562;8.504;2022-10-20T11:04:57;12.20;99.90
22562;DHT22;11447;50.562;8.504;2022-10-20T11:07:33;12.20;99.90
22562;DHT22;11447;50.562;8.504;2022-10-20T11:15:19;12.40;99.90
22562;DHT22;11447;50.562;8.504;2022-10-20T11:23:00;12.40;99.90
22562;DHT22;11447;50.562;8.504;2022-10-20T11:25:33;12.50;99.90
22562;DHT22;11447;50.562;8.504;2022-10-20T11:28:03;12.50;99.90
22562;DHT22;11447;50.562;8.504;2022-10-20T11:30:33;12.50;99.90
22562;DHT22;11447;50.562;8.504;2022-10-20T11:33:04;12.50;99.90
22562;DHT22;11447;50.562;8.504;2022-10-20T11:35:57;12.50;99.90
22562;DHT22;11447;50.562;8.504;2022-10-20T11:38:33;12.50;99.90
22562;DHT22;11447;50.562;8.504;2022-10-20T11:46:31;12.30;99.90
22562;DHT22;11447;50.562;8.504;2022-10-20T11:49:00;12.40;99.90
22562;DHT22;11447;50.562;8.504;2022-10-20T12:12:32;12.50;99.90
22562;DHT22;11447;50.562;8.504;2022-10-20T12:15:02;12.50;99.90
22562;DHT22;11447;50.562;8.504;2022-10-20T12:17:31;12.50;99.90
22562;DHT22;11447;50.562;8.504;2022-10-20T12:22:43;12.50;99.90
22562;DHT22;11447;50.562;8.504;2022-10-20T12:25:14;12.50;99.90
22562;DHT22;11447;50.562;8.504;2022-10-20T12:27:42;12.50;99.90
22562;DHT22;11447;50.562;8.504;2022-10-20T12:38:00;12.60;99.90
22562;DHT22;11447;50.562;8.504;2022-10-20T12:40:33;12.60;99.90
22562;DHT22;11447;50.562;8.504;2022-10-20T12:43:02;12.70;99.90
22562;DHT22;11447;50.562;8.504;2022-10-20T12:45:50;12.70;99.90
22562;DHT22;11447;50.562;8.504;2022-10-20T12:48:19;12.70;99.90
22562;DHT22;11447;50.562;8.504;2022-10-20T12:50:47;12.70;99.90
22562;DHT22;11447;50.562;8.504;2022-10-20T12:55:47;12.70;99.90
22562;DHT22;11447;50.562;8.504;2022-10-20T13:03:46;12.70;99.90
22562;DHT22;11447;50.562;8.504;2022-10-20T13:11:32;12.70;99.90
22562;DHT22;11447;50.562;8.504;2022-10-20T13:16:45;12.50;99.90
22562;DHT22;11447;50.562;8.504;2022-10-20T13:19:14;12.50;99.90
22562;DHT22;11447;50.562;8.504;2022-10-20T13:21:42;12.60;99.90
22562;DHT22;11447;50.562;8.504;2022-10-20T13:29:10;12.60;99.90
22562;DHT22;11447;50.562;8.504;2022-10-20T13:34:11;12.60;99.90
22562;DHT22;11447;50.562;8.504;2022-10-20T13:39:29;12.60;99.90
22562;DHT22;11447;50.562;8.504;2022-10-20T13:49:58;12.40;99.90
22562;DHT22;11447;50.562;8.504;2022-10-20T13:52:25;12.50;99.90
22562;DHT22;11447;50.562;8.504;2022-10-20T13:54:54;12.40;99.90
22562;DHT22;11447;50.562;8.504;2022-10-20T13:57:27;12.40;99.90
22562;DHT22;11447;50.562;8.504;2022-10-20T13:59:58;12.40;99.90
22562;DHT22;11447;50.562;8.504;2022-10-20T14:07:52;12.40;99.90
22562;DHT22;11447;50.562;8.504;2022-10-20T14:13:17;12.40;99.90
22562;DHT22;11447;50.562;8.504;2022-10-20T14:15:47;12.40;99.90
22562;DHT22;11447;50.562;8.504;2022-10-20T14:21:00;12.40;99.90
22562;DHT22;11447;50.562;8.504;2022-10-20T14:23:32;12.50;99.90
22562;DHT22;11447;50.562;8.504;2022-10-20T14:26:00;12.50;99.90
22562;DHT22;11447;50.562;8.504;2022-10-20T14:28:27;12.50;99.90
22562;DHT22;11447;50.562;8.504;2022-10-20T14:30:57;12.50;99.90
22562;DHT22;11447;50.562;8.504;2022-10-20T14:33:25;12.50;99.90
22562;DHT22;11447;50.562;8.504;2022-10-20T14:35:52;12.50;99.90
22562;DHT22;11447;50.562;8.504;2022-10-20T14:38:23;12.60;99.90
22562;DHT22;11447;50.562;8.504;2022-10-20T14:40:53;12.60;99.90
22562;DHT22;11447;50.562;8.504;2022-10-20T14:43:37;12.60;99.90
22562;DHT22;11447;50.562;8.504;2022-10-20T14:46:05;12.70;99.90
22562;DHT22;11447;50.562;8.504;2022-10-20T14:48:36;12.70;99.90
22562;DHT22;11447;50.562;8.504;2022-10-20T14:53:50;12.70;99.90
22562;DHT22;11447;50.562;8.504;2022-10-20T14:56:23;12.60;99.90
22562;DHT22;11447;50.562;8.504;2022-10-20T15:01:24;12.60;99.90
22562;DHT22;11447;50.562;8.504;2022-10-20T15:04:12;12.60;99.90
22562;DHT22;11447;50.562;8.504;2022-10-20T15:06:38;12.60;99.90
22562;DHT22;11447;50.562;8.504;2022-10-20T15:09:05;12.60;99.90
22562;DHT22;11447;50.562;8.504;2022-10-20T15:11:37;12.60;99.90
22562;DHT22;11447;50.562;8.504;2022-10-20T15:14:04;12.60;99.90
22562;DHT22;11447;50.562;8.504;2022-10-20T15:21:58;12.40;99.90
22562;DHT22;11447;50.562;8.504;2022-10-20T15:24:27;12.40;99.90
22562;DHT22;11447;50.562;8.504;2022-10-20T15:26:54;12.40;99.90
22562;DHT22;11447;50.562;8.504;2022-10-20T15:29:21;12.40;99.90
22562;DHT22;11447;50.562;8.504;2022-10-20T15:31:47;12.40;99.90
22562;DHT22;11447;50.562;8.504;2022-10-20T15:34:14;12.40;99.90
22562;DHT22;11447;50.562;8.504;2022-10-20T15:36:43;12.40;99.90
22562;DHT22;11447;50.562;8.504;2022-10-20T15:39:12;12.30;99.90
22562;DHT22;11447;50.562;8.504;2022-10-20T15:41:39;12.30;99.90
22562;DHT22;11447;50.562;8.504;2022-10-20T15:46:35;12.20;99.90
22562;DHT22;11447;50.562;8.504;2022-10-20T15:49:02;12.30;99.90
22562;DHT22;11447;50.562;8.504;2022-10-20T15:51:29;12.20;99.90
22562;DHT22;11447;50.562;8.504;2022-10-20T15:53:56;12.10;99.90
22562;DHT22;11447;50.562;8.504;2022-10-20T15:56:27;12.20;99.90
22562;DHT22;11447;50.562;8.504;2022-10-20T15:58:54;12.10;99.90
22562;DHT22;11447;50.562;8.504;2022-10-20T16:01:21;12.00;99.90
22562;DHT22;11447;50.562;8.504;2022-10-20T16:03:47;11.90;99.90
22562;DHT22;11447;50.562;8.504;2022-10-20T16:06:17;12.00;99.90
22562;DHT22;11447;50.562;8.504;2022-10-20T16:08:44;12.10;99.90
22562;DHT22;11447;50.562;8.504;2022-10-20T16:11:15;12.10;99.90
22562;DHT22;11447;50.562;8.504;2022-10-20T16:13:42;12.10;99.90
22562;DHT22;11447;50.562;8.504;2022-10-20T16:16:10;12.10;99.90
22562;DHT22;11447;50.562;8.504;2022-10-20T16:18:38;12.10;99.90
22562;DHT22;11447;50.562;8.504;2022-10-20T16:21:04;12.20;99.90
22562;DHT22;11447;50.562;8.504;2022-10-20T16:23:33;12.20;99.90
22562;DHT22;11447;50.562;8.504;2022-10-20T16:26:02;12.20;99.90
22562;DHT22;11447;50.562;8.504;2022-10-20T16:28:29;12.30;99.90
22562;DHT22;11447;50.562;8.504;2022-10-20T16:31:05;12.30;99.90
22562;DHT22;11447;50.562;8.504;2022-10-20T16:33:32;12.40;99.90
22562;DHT22;11447;50.562;8.504;2022-10-20T16:36:03;12.40;99.90
22562;DHT22;11447;50.562;8.504;2022-10-20T16:38:40;12.30;99.90
22562;DHT22;11447;50.562;8.504;2022-10-20T16:41:08;12.30;99.90
22562;DHT22;11447;50.562;8.504;2022-10-20T16:43:36;12.20;99.90
22562;DHT22;11447;50.562;8.504;2022-10-20T16:46:03;12.10;99.90
22562;DHT22;11447;50.562;8.504;2022-10-20T16:48:30;12.00;99.90
22562;DHT22;11447;50.562;8.504;2022-10-20T16:51:04;12.00;99.90
22562;DHT22;11447;50.562;8.504;2022-10-20T16:53:34;12.00;99.90
22562;DHT22;11447;50.562;8.504;2022-10-20T16:56:00;12.00;99.90
22562;DHT22;11447;50.562;8.504;2022-10-20T16:58:27;12.00;99.90
22562;DHT22;11447;50.562;8.504;2022-10-20T17:01:01;12.00;99.90
22562;DHT22;11447;50.562;8.504;2022-10-20T17:03:29;11.90;99.90
22562;DHT22;11447;50.562;8.504;2022-10-20T17:06:00;11.90;99.90
22562;DHT22;11447;50.562;8.504;2022-10-20T17:08:27;11.90;99.90
22562;DHT22;11447;50.562;8.504;2022-10-20T17:10:59;12.00;99.90
22562;DHT22;11447;50.562;8.504;2022-10-20T17:13:26;12.00;99.90
22562;DHT22;11447;50.562;8.504;2022-10-20T17:15:53;11.90;99.90
22562;DHT22;11447;50.562;8.504;2022-10-20T17:18:20;12.00;99.90
22562;DHT22;11447;50.562;8.504;2022-10-20T17:20:51;12.00;99.90
22562;DHT22;11447;50.562;8.504;2022-10-20T17:23:17;12.00;99.90
22562;DHT22;11447;50.562;8.504;2022-10-20T17:25:44;12.00;99.90
22562;DHT22;11447;50.562;8.504;2022-10-20T17:28:10;12.10;99.90
22562;DHT22;11447;50.562;8.504;2022-10-20T17:30:40;12.10;99.90
22562;DHT22;11447;50.562;8.504;2022-10-20T17:33:07;12.00;99.90
22562;DHT22;11447;50.562;8.504;2022-10-20T17:35:34;12.00;99.90
22562;DHT22;11447;50.562;8.504;2022-10-20T17:38:02;12.00;99.90
22562;DHT22;11447;50.562;8.504;2022-10-20T17:40:34;12.00;99.90
22562;DHT22;11447;50.562;8.504;2022-10-20T17:43:01;11.90;99.90
22562;DHT22;11447;50.562;8.504;2022-10-20T17:45:27;11.90;99.90
22562;DHT22;11447;50.562;8.504;2022-10-20T17:47:54;11.90;99.90
22562;DHT22;11447;50.562;8.504;2022-10-20T17:50:20;11.90;99.90
22562;DHT22;11447;50.562;8.504;2022-10-20T17:52:47;11.90;99.90
22562;DHT22;11447;50.562;8.504;2022-10-20T17:55:14;11.80;99.90
22562;DHT22;11447;50.562;8.504;2022-10-20T17:57:40;11.80;99.90
22562;DHT22;11447;50.562;8.504;2022-10-20T18:00:07;11.80;99.90
22562;DHT22;11447;50.562;8.504;2022-10-20T18:02:48;11.80;99.90
22562;DHT22;11447;50.562;8.504;2022-10-20T18:05:14;11.90;99.90
22562;DHT22;11447;50.562;8.504;2022-10-20T18:07:43;11.90;99.90
22562;DHT22;11447;50.562;8.504;2022-10-20T18:10:10;11.90;99.90
22562;DHT22;11447;50.562;8.504;2022-10-20T18:12:39;11.90;99.90
22562;DHT22;11447;50.562;8.504;2022-10-20T18:15:06;11.90;99.90
22562;DHT22;11447;50.562;8.504;2022-10-20T18:17:33;11.90;99.90
22562;DHT22;11447;50.562;8.504;2022-10-20T18:20:00;11.90;99.90
22562;DHT22;11447;50.562;8.504;2022-10-20T18:22:27;11.90;99.90
22562;DHT22;11447;50.562;8.504;2022-10-20T18:24:56;11.80;99.90
22562;DHT22;11447;50.562;8.504;2022-10-20T18:27:27;11.80;99.90
22562;DHT22;11447;50.562;8.504;2022-10-20T18:29:56;11.80;99.90
22562;DHT22;11447;50.562;8.504;2022-10-20T18:32:23;11.90;99.90